Myton, Utah
Current Conditions -  °F | °C
As of 6:53 PM on Thursday 20 Nov 2014 (Local Time) from KVEL Reporting Station
Clear Clear  
Wind Chill: 34°   Ceiling: Unl
Heat Index: 34°   Visibility: 10mi
Dew Point: 12°   Wind: 3mph
Humidity: 40%   Direction: 300°WNW
Pressure: 30.07"   Gusts: NA
Location:  40.19°N, 110.06°W
Report Text: KVEL 210153Z AUTO 30003KT 10SM CLR 01/M11 A3007 RMK AO2 SLP202 T00111111
Loading
Personal Weather Stations






























Interactive Weather Map New forecast layout! Learn more

10-Day Weather Forecast

Advertisements
Track Severe Weather on mobile